Thursday, January 18, 2018, 11:01 PM EST
Back to Local

KITH, Ithaca, Ithaca Tompkins Regional Airport

Location: Ithaca, NY, United States Lat: 42.491
Local Time: 11:01 PM EST ( 4:01 GMT) Lon: -76.458
Time Zone: US/Eastern Elev: 1099 ft

Show me the last for .
Show Coded

Time T Td Feel RH Dir Speed Gust Alt SLP Vis Weather Sky Remarks
2018-01-18 21:56 10 6 4 83 90° 3 - 29.99 30.05 9 CLR None
2018-01-18 20:56 8 5 0 86 80° 5 - 30.00 30.07 9 CLR None
2018-01-18 19:56 4 0 -5 83 80° 5 - 30.00 30.09 9 CLR None
2018-01-18 18:56 7 1 - 75 - Calm - 30.01 30.08 10 CLR 6-hr Min Temp (7pm): 7.0°F
6-hr Max Temp (7pm): 21.9°F
2018-01-18 17:56 10 3 - 72 - Calm - 29.99 30.06 10 CLR None
2018-01-18 16:56 18 10 10 70 330° 6 - 29.99 30.06 10 SCT026 None
2018-01-18 15:56 21 11 11 64 310° 9 - 29.99 30.06 10 SCT026 None
2018-01-18 14:56 22 11 13 62 280° 8 - 29.99 30.06 10 SCT030 None
2018-01-18 13:56 21 11 8 64 300° 14 - 30.00 30.06 10 SCT026 None
2018-01-18 13:42 19 10 7 67 290° 13 - 30.00 - 10 SCT027 None
2018-01-18 12:56 19 10 7 67 270° 10 - 30.02 30.09 10 OVC027 1-hr Precip Total: Trace
6-hr Precip Total (1pm): 0.00"
6-hr Min Temp (1pm): -2.9°F
6-hr Max Temp (1pm): 19.9°F
2018-01-18 11:56 18 9 4 67 300° 15 - 30.02 30.09 10 OVC028 None
2018-01-18 10:56 17 8 7 67 290° 8 - 30.05 30.13 10 BKN028 1-hr Precip Total: Trace
2018-01-18 10:30 18 7 5 61 280° 12 - 30.06 - 10 BKN026 None
2018-01-18 10:05 16 7 4 66 280° 9 - 30.06 - 10 SCT026 None
2018-01-18 09:56 17 6 8 61 260° 7 - 30.05 30.12 10 SCT026 None
2018-01-18 08:56 8 5 -2 86 230° 6 - 30.04 30.11 10 CLR None
2018-01-18 07:56 -3 -7 - 81 - Calm - 30.03 30.11 10 CLR None
2018-01-18 06:56 4 1 -8 87 210° 7 - 30.02 30.10 10 CLR 24-hr Precip Total (7am): 0.01"
6-hr Min Temp (7am): -0.0°F
6-hr Max Temp (7am): 8.1°F
2018-01-18 06:30 3 -2 -4 77 200° 3 - 30.02 - 10 CLR None
2018-01-18 05:56 7 4 -3 86 190° 6 - 30.02 30.09 10 CLR None
2018-01-18 04:56 3 0 -8 86 160° 6 - 30.03 30.10 10 CLR None
2018-01-18 03:56 1 -3 -7 82 170° 3 - 30.06 30.12 10 CLR None
2018-01-18 02:56 2 -2 - 82 - Calm - 30.07 30.14 10 CLR None
2018-01-18 01:56 4 1 -5 87 150° 5 - 30.07 30.14 10 CLR None
2018-01-18 00:56 1 -2 -9 86 170° 5 - 30.09 30.16 10 CLR 6-hr Min Temp (1am): -2.0°F
6-hr Max Temp (1am): 10.0°F
2018-01-17 23:56 2 0 -6 91 170° 3 - 30.10 30.17 10 CLR 24-hr Min Temp (12am): -2.0°F
24-hr Max Temp (12am): 25.0°F

Support USWX by starting your Amazon purchase here.